Time;durP1;ratioP1;P1;durP2;ratioP2;P2;SDS_P1;SDS_P2;PMS_P1;PMS_P2;Temp;Humidity;BMP_temperature;BMP_pressure;BME280_temperature;BME280_humidity;BME280_pressure;Samples;Min_cycle;Max_cycle;Signal;HPM_P1;HPM_P2
2023/07/17 00:00:05;;;;;;;5.10;3.10;;;19.40;99.90;;;;;;4135720;28;20604;-75
2023/07/17 00:02:07;;;;;;;8.47;3.40;;;19.40;99.90;;;;;;4139317;28;20220;-76
2023/07/17 00:04:08;;;;;;;5.27;3.60;;;19.50;99.90;;;;;;4134825;28;20233;-75
2023/07/17 00:06:11;;;;;;;5.67;3.17;;;19.50;99.90;;;;;;4137180;28;20292;-76
2023/07/17 00:08:13;;;;;;;5.97;3.27;;;19.50;99.90;;;;;;4138726;28;20238;-76
2023/07/17 00:10:15;;;;;;;5.23;3.33;;;19.50;99.90;;;;;;4137729;28;20764;-76
2023/07/17 00:12:16;;;;;;;7.83;3.20;;;19.50;99.90;;;;;;4136649;28;20342;-75
2023/07/17 00:14:18;;;;;;;6.93;3.10;;;19.50;99.90;;;;;;4137070;28;20200;-76
2023/07/17 00:16:20;;;;;;;6.70;3.10;;;19.60;99.90;;;;;;4137172;28;20208;-76
2023/07/17 00:18:22;;;;;;;7.60;3.20;;;19.50;99.90;;;;;;4141444;28;20208;-75
2023/07/17 00:20:24;;;;;;;4.60;2.87;;;19.50;99.90;;;;;;4137604;28;20242;-75
2023/07/17 00:22:26;;;;;;;4.83;3.10;;;19.50;99.90;;;;;;4137774;28;20299;-76
2023/07/17 00:24:28;;;;;;;9.83;3.60;;;19.50;99.90;;;;;;4142126;28;20303;-75
2023/07/17 00:26:30;;;;;;;6.03;3.03;;;19.50;99.90;;;;;;4145156;28;20205;-76
2023/07/17 00:28:32;;;;;;;6.17;2.77;;;19.50;99.90;;;;;;4143974;28;20290;-76
2023/07/17 00:30:34;;;;;;;5.50;2.90;;;19.50;99.90;;;;;;4140844;28;20244;-75
2023/07/17 00:32:36;;;;;;;5.93;3.00;;;19.50;99.90;;;;;;4139308;28;20674;-75
2023/07/17 00:34:38;;;;;;;6.87;3.17;;;19.50;99.90;;;;;;4141301;28;20295;-75
2023/07/17 00:36:39;;;;;;;4.43;2.67;;;19.40;99.90;;;;;;4139226;28;20700;-76
2023/07/17 00:38:42;;;;;;;6.57;3.00;;;19.40;99.90;;;;;;4137790;28;20200;-75
2023/07/17 00:40:44;;;;;;;4.53;2.60;;;19.40;99.90;;;;;;4139534;28;20321;-76
2023/07/17 00:42:46;;;;;;;5.07;2.70;;;19.40;99.90;;;;;;4139272;28;20666;-76
2023/07/17 00:44:48;;;;;;;5.10;2.73;;;19.40;99.90;;;;;;4136552;28;20244;-75
2023/07/17 00:46:52;;;;;;;4.47;2.60;;;19.40;99.90;;;;;;4143572;28;20224;-76
2023/07/17 00:48:54;;;;;;;8.13;3.90;;;19.40;99.90;;;;;;4139602;28;20862;-75
2023/07/17 00:50:56;;;;;;;6.90;4.37;;;19.40;99.90;;;;;;4139983;28;20329;-76
2023/07/17 00:52:58;;;;;;;5.93;3.10;;;19.30;99.90;;;;;;4139315;28;20779;-76
2023/07/17 00:55:03;;;;;;;5.93;3.13;;;19.30;99.90;;;;;;4140206;28;20306;-75
2023/07/17 00:57:06;;;;;;;8.50;3.20;;;19.30;99.90;;;;;;4139310;28;20219;-75
2023/07/17 00:59:09;;;;;;;4.80;2.80;;;19.30;99.90;;;;;;4141016;28;20224;-75
2023/07/17 01:01:12;;;;;;;5.27;3.20;;;19.30;99.90;;;;;;4138364;28;20227;-75
2023/07/17 01:03:14;;;;;;;8.63;3.27;;;19.20;99.90;;;;;;4141057;28;20228;-75
2023/07/17 01:05:16;;;;;;;5.60;3.30;;;19.20;99.90;;;;;;4139822;28;20314;-75
2023/07/17 01:07:17;;;;;;;6.37;3.30;;;19.20;99.90;;;;;;4139087;28;20215;-75
2023/07/17 01:09:20;;;;;;;5.50;3.00;;;19.20;99.90;;;;;;4137998;28;20251;-75
2023/07/17 01:11:22;;;;;;;5.80;3.13;;;19.10;99.90;;;;;;4135452;28;20217;-74
2023/07/17 01:13:24;;;;;;;7.23;3.20;;;19.10;99.90;;;;;;4138218;28;20223;-75
2023/07/17 01:15:25;;;;;;;6.50;2.90;;;19.10;99.90;;;;;;4139529;28;20223;-74
2023/07/17 01:17:27;;;;;;;6.80;3.23;;;19.10;99.90;;;;;;4141481;28;20688;-74
2023/07/17 01:19:29;;;;;;;4.97;3.17;;;19.10;99.90;;;;;;4136133;28;20232;-75
2023/07/17 01:21:34;;;;;;;5.07;3.10;;;19.10;99.90;;;;;;4139281;28;20218;-75
2023/07/17 01:23:37;;;;;;;5.30;3.07;;;19.10;99.90;;;;;;4138270;28;20234;-75
2023/07/17 01:25:39;;;;;;;6.73;3.00;;;19.10;99.90;;;;;;4136946;28;20222;-75
2023/07/17 01:27:41;;;;;;;5.80;3.00;;;19.10;99.90;;;;;;4137174;28;20303;-75
2023/07/17 01:29:43;;;;;;;4.83;3.03;;;19.10;99.90;;;;;;4138498;28;20722;-76
2023/07/17 01:31:45;;;;;;;6.03;2.70;;;19.10;99.90;;;;;;4139293;28;20287;-75
2023/07/17 01:33:47;;;;;;;7.40;3.47;;;19.10;99.90;;;;;;4137102;28;20222;-75
2023/07/17 01:35:47;;;;;;;6.83;3.17;;;19.10;99.90;;;;;;4139307;28;20215;-75
2023/07/17 01:37:49;;;;;;;5.13;3.03;;;19.10;99.90;;;;;;4140460;28;20238;-75
2023/07/17 01:39:53;;;;;;;5.33;2.83;;;19.00;99.90;;;;;;4136294;28;20629;-75
2023/07/17 01:41:54;;;;;;;6.60;3.03;;;19.00;99.90;;;;;;4142968;28;20310;-74
2023/07/17 01:43:56;;;;;;;5.83;3.10;;;19.00;99.90;;;;;;4138906;28;20726;-74
2023/07/17 01:45:58;;;;;;;6.57;3.30;;;19.00;99.90;;;;;;4140863;28;20302;-75
2023/07/17 01:48:00;;;;;;;6.07;3.33;;;19.10;99.90;;;;;;4139487;28;20224;-75
2023/07/17 01:50:02;;;;;;;4.90;3.10;;;19.10;99.90;;;;;;4140729;28;20232;-74
2023/07/17 01:52:04;;;;;;;6.03;2.90;;;19.10;99.90;;;;;;4139614;28;20250;-75
2023/07/17 01:54:06;;;;;;;5.30;2.67;;;19.10;99.90;;;;;;4138618;28;20649;-75
2023/07/17 01:56:10;;;;;;;4.40;2.87;;;19.00;99.90;;;;;;4140250;28;20262;-74
2023/07/17 01:58:11;;;;;;;7.97;3.43;;;19.00;99.90;;;;;;4142784;28;21031;-74
2023/07/17 02:00:13;;;;;;;6.97;3.17;;;19.10;99.90;;;;;;4141307;28;20241;-74
2023/07/17 02:02:15;;;;;;;5.67;3.13;;;19.00;99.90;;;;;;4141293;28;20825;-74
2023/07/17 02:04:17;;;;;;;5.50;3.10;;;19.00;99.90;;;;;;4139869;28;20681;-74
2023/07/17 02:06:18;;;;;;;5.43;3.10;;;19.00;99.90;;;;;;4141174;28;20210;-74
2023/07/17 02:08:20;;;;;;;6.47;3.00;;;19.00;99.90;;;;;;4138734;28;20207;-75
2023/07/17 02:10:22;;;;;;;5.87;3.03;;;19.00;99.90;;;;;;4137502;28;20242;-74
2023/07/17 02:12:25;;;;;;;6.43;3.23;;;19.00;99.90;;;;;;4139396;28;20214;-74
2023/07/17 02:14:27;;;;;;;6.97;3.10;;;19.00;99.90;;;;;;4138916;28;20687;-75
2023/07/17 02:16:29;;;;;;;8.23;3.30;;;19.00;99.90;;;;;;4141602;28;20305;-74
2023/07/17 02:18:31;;;;;;;5.73;3.30;;;19.00;99.90;;;;;;4142066;28;20219;-75
2023/07/17 02:20:33;;;;;;;9.87;5.33;;;18.90;99.90;;;;;;4140354;28;20229;-74
2023/07/17 02:22:35;;;;;;;9.37;4.63;;;18.90;99.90;;;;;;4139373;28;20210;-75
2023/07/17 02:24:36;;;;;;;7.40;4.20;;;18.90;99.90;;;;;;4141144;28;20255;-75
2023/07/17 02:26:37;;;;;;;7.97;3.87;;;18.90;99.90;;;;;;4136776;28;20655;-74
2023/07/17 02:28:40;;;;;;;8.27;3.37;;;18.90;99.90;;;;;;4141213;28;20221;-74
2023/07/17 02:30:42;;;;;;;7.57;3.20;;;18.90;99.90;;;;;;4141755;28;20228;-74
2023/07/17 02:32:44;;;;;;;4.80;2.93;;;18.90;99.90;;;;;;4139643;28;20215;-74
2023/07/17 02:34:46;;;;;;;5.87;3.27;;;18.90;99.90;;;;;;4140034;28;20201;-74
2023/07/17 02:36:48;;;;;;;7.33;2.87;;;18.90;99.90;;;;;;4135471;28;20270;-74
2023/07/17 02:38:50;;;;;;;4.73;3.13;;;18.90;99.90;;;;;;4132308;28;20211;-75
2023/07/17 02:40:51;;;;;;;7.40;4.00;;;18.90;99.90;;;;;;4144189;28;20236;-74
2023/07/17 02:42:53;;;;;;;9.90;4.63;;;18.90;99.90;;;;;;4137529;28;20220;-75
2023/07/17 02:44:56;;;;;;;11.00;5.07;;;18.90;99.90;;;;;;4137103;28;20234;-74
2023/07/17 02:46:57;;;;;;;6.17;3.87;;;18.90;99.90;;;;;;4143409;28;20210;-74
2023/07/17 02:48:59;;;;;;;6.77;3.43;;;18.90;99.90;;;;;;4141097;28;20242;-74
2023/07/17 02:51:01;;;;;;;7.93;4.00;;;18.90;99.90;;;;;;4142397;28;20213;-74
2023/07/17 02:53:03;;;;;;;8.70;4.43;;;18.80;99.90;;;;;;4142644;28;20223;-74
2023/07/17 02:55:06;;;;;;;7.60;4.40;;;18.80;99.90;;;;;;4144265;28;20218;-74
2023/07/17 02:57:08;;;;;;;7.00;3.57;;;18.80;99.90;;;;;;4138526;28;20281;-75
2023/07/17 02:59:10;;;;;;;7.07;4.00;;;18.70;99.90;;;;;;4148543;28;20222;-75
2023/07/17 03:01:13;;;;;;;8.43;3.90;;;18.70;99.90;;;;;;4142451;28;20211;-75
2023/07/17 03:03:15;;;;;;;5.77;3.40;;;18.70;99.90;;;;;;4144867;28;20207;-75
2023/07/17 03:05:17;;;;;;;6.87;3.63;;;18.70;99.90;;;;;;4147614;28;20207;-75
2023/07/17 03:07:19;;;;;;;8.77;3.33;;;18.70;99.90;;;;;;4143539;28;20299;-75
2023/07/17 03:09:21;;;;;;;7.63;3.63;;;18.60;99.90;;;;;;4143907;28;20227;-74
2023/07/17 03:11:23;;;;;;;6.73;3.73;;;18.50;99.90;;;;;;4140349;28;20665;-75
2023/07/17 03:13:25;;;;;;;6.93;3.67;;;18.50;99.90;;;;;;4140041;28;20207;-75
2023/07/17 03:15:27;;;;;;;9.23;4.53;;;18.50;99.90;;;;;;4136340;28;20290;-74
2023/07/17 03:17:30;;;;;;;12.10;4.10;;;18.50;99.90;;;;;;4141291;28;20218;-75
2023/07/17 03:19:32;;;;;;;9.23;4.53;;;18.40;99.90;;;;;;4139947;28;20354;-74
2023/07/17 03:21:34;;;;;;;8.10;4.30;;;18.40;99.90;;;;;;4139337;28;20211;-74
2023/07/17 03:23:36;;;;;;;8.37;4.43;;;18.40;99.90;;;;;;4142916;28;20330;-74
2023/07/17 03:25:41;;;;;;;9.63;4.60;;;18.40;99.90;;;;;;4143309;28;20236;-75
2023/07/17 03:27:43;;;;;;;8.20;4.10;;;18.30;99.90;;;;;;4137922;28;20709;-75
2023/07/17 03:29:47;;;;;;;8.17;4.27;;;18.30;99.90;;;;;;4139936;28;20240;-74
2023/07/17 03:31:49;;;;;;;6.23;4.00;;;18.30;99.90;;;;;;4138760;28;20703;-75
2023/07/17 03:33:52;;;;;;;5.83;3.90;;;18.20;99.90;;;;;;4139803;28;20215;-75
2023/07/17 03:35:54;;;;;;;7.20;4.27;;;18.20;99.90;;;;;;4139192;28;20218;-75
2023/07/17 03:37:56;;;;;;;7.27;4.30;;;18.10;99.90;;;;;;4141657;28;20221;-75
2023/07/17 03:39:58;;;;;;;6.67;3.63;;;18.10;99.90;;;;;;4136856;28;20269;-75
2023/07/17 03:42:00;;;;;;;6.30;3.30;;;18.10;99.90;;;;;;4139202;28;20301;-75
2023/07/17 03:44:02;;;;;;;7.87;3.60;;;18.10;99.90;;;;;;4140733;28;20663;-75
2023/07/17 03:46:04;;;;;;;6.93;3.77;;;18.10;99.90;;;;;;4134999;28;20281;-75
2023/07/17 03:48:06;;;;;;;5.80;3.50;;;18.10;99.90;;;;;;4137181;28;20219;-74
2023/07/17 03:50:10;;;;;;;8.33;3.73;;;18.10;99.90;;;;;;4144564;28;20237;-75
2023/07/17 03:52:11;;;;;;;8.47;3.90;;;18.10;99.90;;;;;;4141315;28;20233;-75
2023/07/17 03:54:13;;;;;;;7.90;4.30;;;18.10;99.90;;;;;;4142131;28;20213;-75
2023/07/17 03:56:15;;;;;;;7.23;3.63;;;18.10;99.90;;;;;;4143597;28;20213;-74
2023/07/17 03:58:17;;;;;;;8.57;3.70;;;18.10;99.90;;;;;;4140879;28;20224;-75
2023/07/17 04:00:19;;;;;;;7.00;3.77;;;18.10;99.90;;;;;;4145634;28;20265;-75
2023/07/17 04:02:21;;;;;;;6.07;3.73;;;18.20;99.90;;;;;;4140117;28;20268;-74
2023/07/17 04:04:23;;;;;;;6.13;3.97;;;18.20;99.90;;;;;;4141192;28;20317;-74
2023/07/17 04:06:26;;;;;;;7.13;3.70;;;18.20;99.90;;;;;;4142245;28;21739;-75
2023/07/17 04:08:27;;;;;;;7.07;4.10;;;18.20;99.90;;;;;;4142694;28;20575;-75
2023/07/17 04:10:29;;;;;;;9.83;3.80;;;18.20;99.90;;;;;;4144327;28;20261;-75
2023/07/17 04:12:31;;;;;;;7.00;3.83;;;18.20;99.90;;;;;;4144406;28;20662;-75
2023/07/17 04:14:33;;;;;;;7.07;4.13;;;18.20;99.90;;;;;;4142473;28;20214;-74
2023/07/17 04:16:36;;;;;;;8.50;4.00;;;18.10;99.90;;;;;;4140019;28;20327;-75
2023/07/17 04:18:38;;;;;;;9.27;4.50;;;18.10;99.90;;;;;;4144679;28;20289;-75
2023/07/17 04:20:40;;;;;;;5.83;3.80;;;18.00;99.90;;;;;;4139527;28;20233;-74
2023/07/17 04:22:43;;;;;;;7.23;3.60;;;18.00;99.90;;;;;;4143812;28;20650;-75
2023/07/17 04:24:45;;;;;;;6.60;4.20;;;18.00;99.90;;;;;;4143332;28;20237;-74
2023/07/17 04:26:47;;;;;;;6.40;3.80;;;18.00;99.90;;;;;;4138743;28;20208;-74
2023/07/17 04:28:49;;;;;;;8.47;4.10;;;18.00;99.90;;;;;;4146940;28;20209;-75
2023/07/17 04:30:51;;;;;;;7.63;4.10;;;18.00;99.90;;;;;;4140787;28;20240;-75
2023/07/17 04:32:54;;;;;;;9.37;4.37;;;17.90;99.90;;;;;;4138994;28;20250;-75
2023/07/17 04:34:57;;;;;;;8.90;3.70;;;17.90;99.90;;;;;;4140749;28;20211;-75
2023/07/17 04:36:59;;;;;;;7.50;3.93;;;17.90;99.90;;;;;;4145580;28;20719;-75
2023/07/17 04:39:04;;;;;;;8.50;4.00;;;17.80;99.90;;;;;;4139405;28;20318;-75
2023/07/17 04:41:06;;;;;;;6.63;4.27;;;17.80;99.90;;;;;;4140578;28;20221;-75
2023/07/17 04:43:08;;;;;;;9.17;4.23;;;17.80;99.90;;;;;;4143444;28;20309;-75
2023/07/17 04:45:12;;;;;;;7.33;4.13;;;17.80;99.90;;;;;;4145189;28;20316;-75
2023/07/17 04:47:14;;;;;;;7.23;3.93;;;17.80;99.90;;;;;;4146991;28;20236;-75
2023/07/17 04:49:16;;;;;;;6.17;3.53;;;17.80;99.90;;;;;;4143723;28;20305;-75
2023/07/17 04:51:18;;;;;;;6.23;3.83;;;17.80;99.90;;;;;;4145472;28;20208;-75
2023/07/17 04:53:19;;;;;;;7.87;4.30;;;17.80;99.90;;;;;;4149220;28;20248;-75
2023/07/17 04:55:22;;;;;;;9.50;4.17;;;17.80;99.90;;;;;;4144729;28;20833;-75
2023/07/17 04:57:24;;;;;;;7.67;3.87;;;17.80;99.90;;;;;;4145954;28;20211;-74
2023/07/17 04:59:26;;;;;;;11.80;3.90;;;17.80;99.90;;;;;;4145493;28;20238;-74
2023/07/17 05:01:28;;;;;;;5.37;3.60;;;17.80;99.90;;;;;;4148230;28;20214;-75
2023/07/17 05:03:30;;;;;;;7.77;3.90;;;17.90;99.90;;;;;;4142079;28;20210;-75
2023/07/17 05:05:32;;;;;;;7.17;4.40;;;17.90;99.90;;;;;;4138556;28;20261;-75
2023/07/17 05:07:33;;;;;;;7.80;3.90;;;17.90;99.90;;;;;;4143140;28;20214;-74
2023/07/17 05:09:35;;;;;;;7.10;3.97;;;17.90;99.90;;;;;;4146027;28;20317;-75
2023/07/17 05:11:39;;;;;;;9.30;3.87;;;17.90;99.90;;;;;;4140041;28;20306;-75
2023/07/17 05:13:41;;;;;;;9.17;4.13;;;17.90;99.90;;;;;;4143004;28;20292;-75
2023/07/17 05:15:43;;;;;;;7.40;4.00;;;17.90;99.90;;;;;;4141506;28;20216;-75
2023/07/17 05:17:45;;;;;;;9.50;4.27;;;18.00;99.90;;;;;;4141970;28;20221;-75
2023/07/17 05:19:46;;;;;;;8.57;4.20;;;18.00;99.90;;;;;;4138814;28;20328;-75
2023/07/17 05:21:48;;;;;;;10.73;4.50;;;18.10;99.90;;;;;;4139508;28;20242;-75
2023/07/17 05:23:50;;;;;;;8.27;4.00;;;18.10;99.90;;;;;;4141933;28;20385;-75
2023/07/17 05:25:54;;;;;;;11.03;4.90;;;18.20;99.90;;;;;;4140274;28;20243;-75
2023/07/17 05:27:57;;;;;;;8.33;4.07;;;18.20;99.90;;;;;;4141069;28;20836;-75
2023/07/17 05:29:59;;;;;;;8.07;3.87;;;18.30;99.90;;;;;;4139353;28;20701;-75
2023/07/17 05:32:01;;;;;;;8.87;4.20;;;18.30;99.90;;;;;;4142181;28;20223;-74
2023/07/17 05:34:03;;;;;;;8.87;4.40;;;18.30;99.90;;;;;;4138070;28;20304;-72
2023/07/17 05:36:05;;;;;;;8.07;4.03;;;18.40;99.90;;;;;;4137594;28;20228;-73
2023/07/17 05:38:06;;;;;;;9.97;4.50;;;18.50;99.90;;;;;;4141323;28;20219;-73
2023/07/17 05:40:10;;;;;;;10.93;4.40;;;18.50;99.90;;;;;;4139111;28;20244;-73
2023/07/17 05:42:12;;;;;;;7.10;3.90;;;18.60;99.90;;;;;;4138734;28;20225;-71
2023/07/17 05:44:15;;;;;;;12.13;4.13;;;18.60;99.90;;;;;;4141328;28;20220;-72
2023/07/17 05:46:17;;;;;;;6.97;4.13;;;18.60;99.90;;;;;;4135213;28;20219;-70
2023/07/17 05:48:19;;;;;;;9.17;4.17;;;18.70;99.90;;;;;;4139324;28;20226;-71
2023/07/17 05:50:21;;;;;;;9.73;4.20;;;18.80;99.90;;;;;;4137136;28;20294;-72
2023/07/17 05:52:23;;;;;;;12.57;5.17;;;18.80;99.90;;;;;;4133227;28;20241;-71
2023/07/17 05:54:25;;;;;;;8.30;4.00;;;18.90;99.90;;;;;;4139243;28;20306;-71
2023/07/17 05:56:26;;;;;;;7.97;4.53;;;19.00;99.90;;;;;;4139691;28;20306;-71
2023/07/17 05:58:28;;;;;;;11.33;4.00;;;19.00;99.90;;;;;;4142999;28;20307;-71
2023/07/17 06:00:31;;;;;;;7.90;4.10;;;19.10;99.90;;;;;;4137399;28;20242;-71
2023/07/17 06:02:33;;;;;;;12.27;4.70;;;19.10;99.90;;;;;;4141549;28;20305;-71
2023/07/17 06:04:35;;;;;;;9.57;4.00;;;19.20;99.90;;;;;;4140945;28;20238;-71
2023/07/17 06:06:37;;;;;;;12.03;4.30;;;19.30;99.90;;;;;;4140502;28;20300;-71
2023/07/17 06:08:39;;;;;;;8.73;4.07;;;19.40;99.90;;;;;;4137236;28;20219;-71
2023/07/17 06:10:42;;;;;;;8.47;4.03;;;19.40;99.90;;;;;;4138212;28;20329;-71
2023/07/17 06:12:44;;;;;;;9.33;4.13;;;19.50;99.90;;;;;;4136729;28;20296;-71
2023/07/17 06:14:46;;;;;;;9.87;4.10;;;19.50;99.90;;;;;;4140027;28;20214;-71
2023/07/17 06:16:49;;;;;;;8.47;4.23;;;19.60;99.90;;;;;;4139681;28;20708;-71
2023/07/17 06:18:50;;;;;;;11.13;4.80;;;19.70;99.90;;;;;;4141467;28;20236;-71
2023/07/17 06:20:52;;;;;;;9.83;3.70;;;19.70;99.90;;;;;;4141741;28;20255;-71
2023/07/17 06:22:54;;;;;;;7.43;4.20;;;19.70;99.90;;;;;;4144641;28;20311;-71
2023/07/17 06:24:55;;;;;;;11.97;4.60;;;19.80;99.90;;;;;;4134765;28;20806;-71
2023/07/17 06:26:59;;;;;;;5.80;3.70;;;19.90;99.90;;;;;;4141343;28;20656;-71
2023/07/17 06:29:01;;;;;;;8.53;4.10;;;19.90;99.90;;;;;;4146178;28;20468;-73
2023/07/17 06:31:04;;;;;;;8.13;4.33;;;20.00;99.90;;;;;;4142901;28;20201;-72
2023/07/17 06:33:07;;;;;;;5.87;3.70;;;20.00;99.90;;;;;;4143502;28;20218;-75
2023/07/17 06:35:10;;;;;;;8.53;3.50;;;20.10;99.90;;;;;;4142772;28;20234;-73
2023/07/17 06:37:12;;;;;;;8.83;3.87;;;20.10;99.90;;;;;;4145996;28;20210;-72
2023/07/17 06:39:14;;;;;;;8.27;4.07;;;20.10;99.90;;;;;;4140391;28;20212;-73
2023/07/17 06:41:16;;;;;;;8.90;3.93;;;20.20;99.90;;;;;;4140542;28;20208;-72
2023/07/17 06:43:17;;;;;;;7.17;3.83;;;20.30;99.90;;;;;;4146258;28;20207;-72
2023/07/17 06:45:20;;;;;;;11.73;4.40;;;20.40;99.90;;;;;;4140102;28;20234;-72
2023/07/17 06:47:22;;;;;;;10.00;4.10;;;20.50;99.90;;;;;;4143827;28;20218;-72
2023/07/17 06:49:25;;;;;;;9.70;4.00;;;20.50;99.90;;;;;;4146219;28;20255;-73
2023/07/17 06:51:27;;;;;;;9.07;4.17;;;20.60;99.90;;;;;;4141343;28;20311;-72
2023/07/17 06:53:29;;;;;;;6.60;3.40;;;20.70;99.90;;;;;;4135974;28;20244;-72
2023/07/17 06:55:31;;;;;;;9.10;4.47;;;20.80;99.90;;;;;;4138304;28;20208;-72
2023/07/17 06:57:33;;;;;;;6.30;4.03;;;20.90;99.90;;;;;;4143595;28;20218;-73
2023/07/17 06:59:35;;;;;;;9.00;3.90;;;21.00;99.90;;;;;;4140982;28;20244;-71
2023/07/17 07:01:37;;;;;;;10.10;4.17;;;21.00;99.90;;;;;;4141240;28;20242;-72
2023/07/17 07:03:39;;;;;;;9.73;3.77;;;21.10;99.90;;;;;;4139395;28;20212;-72
2023/07/17 07:05:42;;;;;;;5.67;3.70;;;21.20;99.90;;;;;;4139724;28;20227;-72
2023/07/17 07:07:44;;;;;;;8.10;3.73;;;21.20;99.90;;;;;;4140441;28;20307;-72
2023/07/17 07:09:46;;;;;;;8.73;4.30;;;21.30;99.90;;;;;;4138337;28;20318;-72
2023/07/17 07:11:47;;;;;;;5.50;3.30;;;21.30;99.90;;;;;;4138462;28;20216;-72
2023/07/17 07:13:49;;;;;;;7.63;4.27;;;21.40;99.90;;;;;;4136508;28;20302;-73
2023/07/17 07:15:52;;;;;;;12.60;4.00;;;21.50;99.90;;;;;;4138958;28;20208;-72
2023/07/17 07:17:53;;;;;;;6.03;3.67;;;21.60;99.90;;;;;;4138627;28;20226;-71
2023/07/17 07:19:55;;;;;;;7.63;3.70;;;21.70;99.90;;;;;;4138225;28;20248;-70
2023/07/17 07:21:58;;;;;;;7.63;3.73;;;21.70;99.90;;;;;;4136262;28;20210;-71
2023/07/17 07:24:02;;;;;;;8.40;3.60;;;21.80;99.90;;;;;;4139353;28;20302;-71
2023/07/17 07:26:04;;;;;;;6.37;3.50;;;21.80;99.90;;;;;;4136988;28;20224;-71
2023/07/17 07:28:06;;;;;;;10.47;4.30;;;21.90;95.90;;;;;;4140712;28;20312;-71
2023/07/17 07:30:09;;;;;;;7.07;3.70;;;22.00;91.50;;;;;;4138557;28;20233;-72
2023/07/17 07:32:11;;;;;;;7.77;3.50;;;22.10;85.00;;;;;;4141077;28;20203;-71
2023/07/17 07:34:13;;;;;;;5.73;3.47;;;22.10;78.00;;;;;;4140058;28;20213;-72
2023/07/17 07:36:15;;;;;;;8.87;4.07;;;22.20;81.00;;;;;;4138709;28;20309;-71
2023/07/17 07:38:17;;;;;;;7.70;3.87;;;22.20;82.30;;;;;;4137575;28;20294;-72
2023/07/17 07:40:19;;;;;;;6.70;3.67;;;22.30;78.00;;;;;;4139320;28;20310;-71
2023/07/17 07:42:21;;;;;;;7.33;3.27;;;22.40;65.90;;;;;;4136379;28;20237;-70
2023/07/17 07:44:22;;;;;;;9.37;3.83;;;22.50;67.90;;;;;;4137815;28;20585;-71
2023/07/17 07:46:24;;;;;;;7.43;3.83;;;22.60;62.60;;;;;;4139589;28;20253;-71
2023/07/17 07:48:26;;;;;;;8.17;4.00;;;22.70;62.50;;;;;;4136831;28;20770;-72
2023/07/17 07:50:28;;;;;;;5.77;3.03;;;22.80;59.70;;;;;;4136636;28;20241;-72
2023/07/17 07:52:30;;;;;;;6.73;3.90;;;22.80;60.20;;;;;;4133776;28;20211;-72
2023/07/17 07:54:33;;;;;;;10.20;3.83;;;22.90;60.50;;;;;;4136404;28;20830;-72
2023/07/17 07:56:35;;;;;;;8.97;4.03;;;22.90;61.30;;;;;;4139402;28;20204;-72
2023/07/17 07:58:37;;;;;;;8.20;3.70;;;23.00;58.40;;;;;;4139566;28;20300;-72
2023/07/17 08:00:38;;;;;;;8.97;3.37;;;23.10;58.10;;;;;;4135689;28;20271;-73
2023/07/17 08:02:40;;;;;;;7.47;4.10;;;23.10;57.70;;;;;;4139145;28;20302;-73
2023/07/17 08:04:42;;;;;;;8.00;4.13;;;23.10;61.80;;;;;;4139738;28;20246;-74
2023/07/17 08:06:44;;;;;;;7.77;3.43;;;23.20;57.60;;;;;;4141346;28;20234;-73
2023/07/17 08:08:46;;;;;;;9.33;3.93;;;23.20;59.60;;;;;;4142712;28;20219;-73
2023/07/17 08:10:52;;;;;;;7.93;3.60;;;23.20;61.60;;;;;;4138385;28;20239;-73
2023/07/17 08:12:54;;;;;;;8.30;4.07;;;23.30;64.60;;;;;;4135949;28;20215;-72
2023/07/17 08:14:56;;;;;;;6.97;3.60;;;23.30;63.50;;;;;;4134870;28;20212;-77
2023/07/17 08:16:58;;;;;;;6.87;3.90;;;23.30;61.70;;;;;;4139179;28;20211;-71
2023/07/17 08:19:00;;;;;;;9.63;3.97;;;23.40;59.10;;;;;;4135749;28;20219;-75
2023/07/17 08:21:02;;;;;;;8.17;3.97;;;23.40;59.90;;;;;;4136680;28;20211;-75
2023/07/17 08:23:04;;;;;;;13.07;4.23;;;23.40;59.00;;;;;;4134257;28;20222;-74
2023/07/17 08:25:07;;;;;;;8.47;3.83;;;23.50;56.20;;;;;;4136524;28;20215;-74
2023/07/17 08:27:10;;;;;;;8.37;3.80;;;23.40;57.40;;;;;;4137935;28;20214;-72
2023/07/17 08:29:12;;;;;;;8.13;4.33;;;23.50;61.60;;;;;;4137808;28;20213;-73
2023/07/17 08:31:14;;;;;;;6.67;3.50;;;23.50;59.80;;;;;;4137234;28;20313;-73
2023/07/17 08:33:16;;;;;;;6.77;3.63;;;23.60;60.10;;;;;;4137322;28;20251;-74
2023/07/17 08:35:18;;;;;;;11.47;3.97;;;23.80;60.00;;;;;;4138722;28;20223;-74
2023/07/17 08:37:20;;;;;;;6.90;3.97;;;23.90;57.40;;;;;;4139034;28;20296;-73
2023/07/17 08:39:22;;;;;;;8.37;4.20;;;24.00;55.00;;;;;;4143451;28;20705;-74
2023/07/17 08:41:24;;;;;;;9.30;4.13;;;23.90;54.70;;;;;;4140166;28;20309;-74
2023/07/17 08:43:28;;;;;;;8.53;3.77;;;24.00;54.70;;;;;;4138280;28;20207;-74
2023/07/17 08:45:32;;;;;;;9.43;4.13;;;24.00;54.00;;;;;;4142792;28;20316;-72
2023/07/17 08:47:34;;;;;;;10.00;4.37;;;24.00;53.20;;;;;;4142377;28;20307;-73
2023/07/17 08:49:38;;;;;;;8.87;4.00;;;24.10;53.00;;;;;;4142902;28;20225;-73
2023/07/17 08:51:40;;;;;;;12.50;3.67;;;24.10;54.70;;;;;;4140956;28;20232;-75
2023/07/17 08:53:44;;;;;;;9.17;3.97;;;24.10;54.10;;;;;;4140174;28;20211;-73
2023/07/17 08:55:48;;;;;;;9.83;4.00;;;24.10;51.40;;;;;;4138321;28;20211;-73
2023/07/17 08:57:54;;;;;;;7.23;3.90;;;24.10;48.10;;;;;;4140519;28;20215;-73
2023/07/17 08:59:57;;;;;;;7.77;3.73;;;24.10;51.50;;;;;;4141200;28;20748;-73
2023/07/17 09:02:00;;;;;;;9.10;3.47;;;24.10;50.30;;;;;;4142329;28;20239;-72
2023/07/17 09:04:03;;;;;;;11.17;3.60;;;24.10;47.30;;;;;;4141474;28;20210;-73
2023/07/17 09:06:06;;;;;;;7.77;3.47;;;24.20;50.00;;;;;;4139777;28;20322;-74
2023/07/17 09:08:08;;;;;;;6.97;3.60;;;24.20;48.00;;;;;;4143063;28;20243;-77
2023/07/17 09:10:19;;;;;;;7.67;3.53;;;24.30;50.10;;;;;;4139302;28;20315;-74
2023/07/17 09:12:23;;;;;;;8.47;3.80;;;24.30;49.10;;;;;;4139246;28;20572;-73
2023/07/17 09:14:25;;;;;;;7.63;3.63;;;24.30;48.70;;;;;;4138019;28;20618;-72
2023/07/17 09:16:28;;;;;;;9.90;3.43;;;24.40;48.40;;;;;;4138468;28;20208;-72
2023/07/17 09:18:30;;;;;;;5.93;3.50;;;24.30;48.50;;;;;;4143579;28;20208;-72
2023/07/17 09:20:32;;;;;;;7.27;3.33;;;24.40;48.70;;;;;;4137689;28;20701;-72
2023/07/17 09:22:34;;;;;;;7.60;3.33;;;24.40;51.10;;;;;;4139930;28;20617;-72
2023/07/17 09:24:37;;;;;;;9.40;3.40;;;24.40;50.60;;;;;;4142355;28;20805;-72
2023/07/17 09:26:39;;;;;;;6.20;2.97;;;24.30;49.80;;;;;;4140893;28;20693;-72
2023/07/17 09:28:48;;;;;;;7.30;3.17;;;24.40;48.70;;;;;;4143512;28;20211;-72
2023/07/17 09:31:01;;;;;;;5.70;2.73;;;24.40;46.90;;;;;;4142261;28;20359;-71
2023/07/17 09:33:08;;;;;;;5.23;2.80;;;24.40;46.90;;;;;;4138218;28;20218;-74
2023/07/17 09:35:11;;;;;;;8.80;3.40;;;24.40;45.40;;;;;;4135607;28;20214;-73
2023/07/17 09:37:13;;;;;;;7.23;2.90;;;24.40;44.90;;;;;;4141598;28;20681;-69
2023/07/17 09:39:15;;;;;;;7.03;2.97;;;24.40;45.00;;;;;;4139796;28;20216;-71
2023/07/17 09:41:23;;;;;;;7.93;3.17;;;24.40;45.20;;;;;;4141627;28;20679;-71
2023/07/17 09:43:29;;;;;;;7.60;3.10;;;24.50;45.70;;;;;;4140674;28;20204;-71
2023/07/17 09:45:31;;;;;;;9.60;3.10;;;24.50;44.90;;;;;;4140252;28;20315;-73
2023/07/17 09:47:32;;;;;;;10.90;3.60;;;24.60;44.90;;;;;;4139119;28;20299;-75
2023/07/17 09:49:37;;;;;;;7.43;2.97;;;24.60;43.80;;;;;;4138316;28;20251;-76
2023/07/17 09:51:39;;;;;;;7.40;2.83;;;24.70;44.00;;;;;;4138428;28;20208;-73
2023/07/17 09:53:41;;;;;;;4.97;2.50;;;24.70;42.60;;;;;;4140300;28;20212;-73
2023/07/17 09:55:43;;;;;;;10.57;3.20;;;24.70;41.40;;;;;;4137615;28;20209;-73
2023/07/17 09:57:47;;;;;;;5.27;2.67;;;24.70;41.20;;;;;;4138287;28;20303;-77
2023/07/17 09:59:50;;;;;;;5.10;2.57;;;24.80;41.40;;;;;;4144050;28;20244;-72
2023/07/17 10:01:56;;;;;;;6.10;2.70;;;24.80;39.60;;;;;;4142068;28;20210;-74
2023/07/17 10:04:04;;;;;;;7.87;2.67;;;24.90;39.20;;;;;;4137590;28;20617;-72
2023/07/17 10:06:06;;;;;;;6.93;2.47;;;24.90;40.00;;;;;;4137952;28;20238;-74
2023/07/17 10:08:10;;;;;;;4.47;2.07;;;25.00;39.60;;;;;;4142362;28;20212;-75
2023/07/17 10:10:11;;;;;;;5.53;2.63;;;25.00;39.20;;;;;;4140705;28;20251;-73
2023/07/17 10:12:14;;;;;;;6.20;2.50;;;25.10;39.20;;;;;;4143523;28;20295;-72
2023/07/17 10:14:16;;;;;;;5.40;2.50;;;25.20;38.80;;;;;;4143680;28;20893;-74
2023/07/17 10:16:19;;;;;;;7.47;2.60;;;25.20;38.30;;;;;;4141396;28;20646;-73
2023/07/17 10:18:23;;;;;;;6.00;2.40;;;25.40;37.60;;;;;;4141403;28;20291;-73
2023/07/17 10:20:26;;;;;;;7.13;2.50;;;25.50;38.20;;;;;;4138040;28;20290;-74
2023/07/17 10:22:38;;;;;;;8.43;2.67;;;25.50;37.30;;;;;;4137662;28;20742;-73
2023/07/17 10:24:40;;;;;;;8.20;2.53;;;25.60;36.60;;;;;;4144809;28;20269;-77
2023/07/17 10:26:46;;;;;;;5.37;2.60;;;25.60;38.60;;;;;;4142055;28;20261;-75
2023/07/17 10:28:54;;;;;;;5.93;2.90;;;25.70;38.10;;;;;;4143648;28;20216;-78
2023/07/17 10:30:56;;;;;;;7.00;2.93;;;25.80;38.40;;;;;;4144478;28;20921;-75
2023/07/17 10:33:06;;;;;;;5.67;2.80;;;25.90;37.80;;;;;;4140318;28;20240;-75
2023/07/17 10:35:20;;;;;;;5.93;2.90;;;25.90;37.20;;;;;;4134787;28;20242;-75